createdAt,value
2023-04-23T00:01:52.124Z,2.80
2023-04-23T00:04:21.255Z,3.20
2023-04-23T00:06:48.674Z,3.33
2023-04-23T00:09:16.694Z,3.10
2023-04-23T00:11:43.769Z,2.43
2023-04-23T00:14:11.450Z,3.03
2023-04-23T00:16:39.498Z,3.67
2023-04-23T00:19:06.262Z,3.00
2023-04-23T00:21:32.960Z,3.40
2023-04-23T00:23:59.715Z,3.30
2023-04-23T00:26:26.545Z,3.47
2023-04-23T00:28:53.333Z,3.60
2023-04-23T00:31:22.531Z,3.37
2023-04-23T00:33:49.383Z,3.07
2023-04-23T00:36:16.138Z,3.07
2023-04-23T00:38:42.828Z,3.30
2023-04-23T00:41:09.683Z,2.37
2023-04-23T00:43:36.874Z,2.40
2023-04-23T00:46:04.120Z,3.03
2023-04-23T00:48:31.510Z,2.60
2023-04-23T00:51:06.397Z,2.70
2023-04-23T00:53:34.060Z,2.77
2023-04-23T00:56:04.109Z,2.47
2023-04-23T00:58:31.654Z,3.10
2023-04-23T01:00:59.038Z,2.40
2023-04-23T01:03:27.442Z,3.07
2023-04-23T01:05:54.524Z,2.80
2023-04-23T01:08:24.621Z,2.33
2023-04-23T01:10:52.190Z,2.73
2023-04-23T01:13:18.894Z,2.70
2023-04-23T01:15:45.841Z,2.50
2023-04-23T01:18:13.263Z,2.70
2023-04-23T01:20:40.361Z,2.70
2023-04-23T01:23:07.426Z,2.53
2023-04-23T01:25:34.802Z,2.80
2023-04-23T01:28:01.953Z,2.93
2023-04-23T01:30:28.890Z,2.93
2023-04-23T01:32:56.604Z,2.13
2023-04-23T01:35:24.572Z,2.73
2023-04-23T01:37:52.634Z,2.70
2023-04-23T01:40:20.929Z,2.60
2023-04-23T01:42:49.120Z,2.70
2023-04-23T01:45:19.538Z,2.33
2023-04-23T01:47:47.722Z,2.60
2023-04-23T01:50:14.832Z,2.90
2023-04-23T01:52:42.428Z,2.43
2023-04-23T01:55:09.577Z,2.90
2023-04-23T01:57:36.760Z,3.00
2023-04-23T02:00:09.410Z,2.33
2023-04-23T02:02:36.353Z,3.07
2023-04-23T02:05:04.722Z,3.27
2023-04-23T02:07:35.008Z,2.60
2023-04-23T02:10:02.335Z,2.93
2023-04-23T02:12:29.053Z,2.67
2023-04-23T02:14:55.919Z,3.20
2023-04-23T02:17:23.159Z,3.57
2023-04-23T02:19:50.423Z,2.20
2023-04-23T02:22:18.356Z,2.73
2023-04-23T02:24:47.221Z,3.03
2023-04-23T02:27:14.264Z,3.07
2023-04-23T02:29:41.239Z,2.90
2023-04-23T02:32:08.935Z,2.90
2023-04-23T02:34:36.062Z,2.53
2023-04-23T02:37:05.169Z,2.80
2023-04-23T02:39:32.584Z,3.57
2023-04-23T02:41:59.492Z,2.33
2023-04-23T02:44:26.388Z,2.80
2023-04-23T02:46:53.312Z,2.80
2023-04-23T02:49:22.730Z,3.10
2023-04-23T02:51:49.479Z,2.50
2023-04-23T02:54:16.429Z,2.80
2023-04-23T02:56:43.112Z,3.10
2023-04-23T02:59:09.990Z,3.17
2023-04-23T03:01:36.938Z,3.03
2023-04-23T03:04:04.473Z,3.30
2023-04-23T03:06:35.738Z,3.07
2023-04-23T03:09:02.995Z,2.67
2023-04-23T03:11:29.748Z,2.70
2023-04-23T03:13:56.539Z,2.60
2023-04-23T03:16:23.329Z,2.87
2023-04-23T03:18:50.089Z,2.90
2023-04-23T03:21:16.915Z,2.80
2023-04-23T03:23:43.742Z,2.83
2023-04-23T03:26:10.432Z,2.40
2023-04-23T03:28:37.237Z,2.87
2023-04-23T03:31:04.128Z,2.90
2023-04-23T03:33:30.927Z,2.87
2023-04-23T03:35:58.267Z,2.40
2023-04-23T03:38:24.999Z,2.63
2023-04-23T03:40:51.720Z,2.80
2023-04-23T03:43:18.621Z,3.03
2023-04-23T03:45:45.620Z,2.57
2023-04-23T03:48:12.453Z,2.40
2023-04-23T03:50:40.732Z,2.70
2023-04-23T03:53:08.149Z,2.90
2023-04-23T03:55:34.965Z,2.80
2023-04-23T03:58:03.591Z,3.00
2023-04-23T04:00:30.502Z,2.23
2023-04-23T04:02:57.426Z,2.70
2023-04-23T04:05:24.678Z,2.83
2023-04-23T04:07:51.461Z,2.43
2023-04-23T04:10:18.195Z,2.40
2023-04-23T04:12:47.665Z,2.17
2023-04-23T04:15:15.791Z,2.10
2023-04-23T04:17:42.601Z,2.13
2023-04-23T04:20:11.166Z,2.27
2023-04-23T04:22:38.084Z,2.40
2023-04-23T04:25:05.378Z,2.73
2023-04-23T04:27:35.118Z,2.90
2023-04-23T04:30:02.344Z,2.10
2023-04-23T04:32:29.248Z,2.73
2023-04-23T04:34:57.195Z,2.60
2023-04-23T04:37:24.345Z,3.37
2023-04-23T04:39:51.357Z,3.67
2023-04-23T04:42:18.091Z,2.90
2023-04-23T04:44:44.871Z,3.10
2023-04-23T04:47:13.392Z,3.00
2023-04-23T04:49:40.274Z,3.20
2023-04-23T04:52:07.060Z,2.80
2023-04-23T04:54:33.923Z,3.63
2023-04-23T04:57:02.356Z,2.80
2023-04-23T04:59:29.136Z,3.00
2023-04-23T05:01:56.503Z,2.63
2023-04-23T05:04:23.334Z,2.77
2023-04-23T05:06:50.130Z,2.60
2023-04-23T05:09:17.211Z,2.30
2023-04-23T05:11:44.033Z,2.47
2023-04-23T05:14:10.793Z,2.30
2023-04-23T05:16:37.705Z,2.00
2023-04-23T05:19:04.523Z,2.33
2023-04-23T05:21:31.584Z,2.47
2023-04-23T05:23:58.350Z,2.60
2023-04-23T05:26:25.065Z,2.47
2023-04-23T05:28:51.871Z,2.17
2023-04-23T05:31:18.705Z,2.27
2023-04-23T05:33:50.520Z,2.47
2023-04-23T05:36:18.524Z,2.30
2023-04-23T05:38:45.418Z,1.70
2023-04-23T05:41:12.274Z,2.07
2023-04-23T05:43:39.119Z,2.17
2023-04-23T05:46:07.470Z,2.30
2023-04-23T05:48:34.791Z,2.53
2023-04-23T05:51:01.758Z,3.00
2023-04-23T05:53:28.761Z,2.53
2023-04-23T05:55:56.030Z,2.27
2023-04-23T05:58:23.289Z,2.90
2023-04-23T06:00:50.261Z,2.87
2023-04-23T06:03:17.332Z,2.80
2023-04-23T06:05:44.442Z,2.83
2023-04-23T06:08:11.280Z,2.70
2023-04-23T06:10:38.094Z,2.83
2023-04-23T06:13:04.889Z,2.47
2023-04-23T06:15:31.665Z,2.83
2023-04-23T06:17:58.928Z,2.83
2023-04-23T06:20:26.132Z,2.90
2023-04-23T06:22:52.981Z,3.33
2023-04-23T06:25:19.846Z,5.23
2023-04-23T06:27:46.694Z,4.37
2023-04-23T06:30:13.624Z,3.37
2023-04-23T06:32:40.467Z,3.90
2023-04-23T06:35:08.505Z,4.13
2023-04-23T06:37:35.568Z,3.30
2023-04-23T06:40:02.338Z,3.03
2023-04-23T06:42:29.128Z,2.90
2023-04-23T06:44:56.593Z,3.07
2023-04-23T06:47:23.380Z,6.00
2023-04-23T06:49:50.099Z,3.77
2023-04-23T06:52:16.859Z,3.77
2023-04-23T06:54:44.096Z,3.67
2023-04-23T06:57:11.124Z,3.40
2023-04-23T06:59:37.889Z,3.87
2023-04-23T07:02:04.856Z,3.23
2023-04-23T07:04:34.567Z,3.80
2023-04-23T07:07:01.349Z,3.50
2023-04-23T07:09:28.995Z,3.60
2023-04-23T07:11:55.827Z,3.80
2023-04-23T07:14:22.578Z,3.80
2023-04-23T07:16:49.345Z,3.67
2023-04-23T07:19:16.110Z,3.83
2023-04-23T07:21:42.891Z,4.00
2023-04-23T07:24:09.665Z,3.33
2023-04-23T07:26:36.635Z,3.50
2023-04-23T07:29:06.788Z,3.40
2023-04-23T07:31:34.094Z,2.40
2023-04-23T07:34:01.324Z,3.23
2023-04-23T07:36:28.417Z,3.00
2023-04-23T07:38:55.361Z,2.80
2023-04-23T07:41:22.207Z,2.70
2023-04-23T07:43:49.031Z,2.50
2023-04-23T07:46:15.916Z,2.90
2023-04-23T07:48:42.692Z,2.47
2023-04-23T07:51:09.727Z,2.00
2023-04-23T07:53:36.499Z,2.03
2023-04-23T07:56:03.337Z,2.10
2023-04-23T07:58:30.183Z,2.03
2023-04-23T08:00:57.114Z,2.17
2023-04-23T08:03:24.546Z,2.23
2023-04-23T08:05:51.458Z,2.17
2023-04-23T08:08:18.257Z,2.30
2023-04-23T08:10:46.158Z,1.87
2023-04-23T08:13:12.931Z,2.03
2023-04-23T08:15:39.866Z,1.50
2023-04-23T08:18:06.812Z,1.77
2023-04-23T08:20:35.301Z,1.57
2023-04-23T08:23:02.181Z,1.50
2023-04-23T08:25:28.965Z,1.60
2023-04-23T08:27:55.911Z,1.73
2023-04-23T08:30:22.693Z,1.70
2023-04-23T08:32:51.467Z,1.73
2023-04-23T08:35:18.443Z,1.50
2023-04-23T08:37:45.662Z,1.30
2023-04-23T08:40:13.237Z,1.40
2023-04-23T08:42:55.316Z,1.60
2023-04-23T08:45:22.237Z,1.20
2023-04-23T08:47:49.160Z,1.30
2023-04-23T08:50:18.178Z,1.30
2023-04-23T08:52:49.748Z,1.50
2023-04-23T08:55:18.814Z,1.40
2023-04-23T08:57:46.957Z,1.50
2023-04-23T09:00:17.096Z,1.20
2023-04-23T09:02:46.811Z,1.47
2023-04-23T09:05:14.590Z,1.37
2023-04-23T09:07:42.189Z,1.20
2023-04-23T09:10:11.694Z,1.43
2023-04-23T09:12:40.974Z,1.33
2023-04-23T09:15:11.000Z,1.40
2023-04-23T09:17:43.204Z,1.47
2023-04-23T09:20:12.270Z,2.13
2023-04-23T09:22:46.006Z,1.73
2023-04-23T09:25:21.909Z,1.40
2023-04-23T09:27:50.512Z,1.70
2023-04-23T09:30:18.633Z,1.40
2023-04-23T09:32:46.658Z,1.67
2023-04-23T09:35:19.603Z,1.27
2023-04-23T09:37:49.520Z,1.43
2023-04-23T09:40:18.550Z,1.30
2023-04-23T09:42:55.765Z,1.67
2023-04-23T09:45:25.094Z,1.40
2023-04-23T09:47:59.065Z,1.70
2023-04-23T09:50:36.698Z,1.50
2023-04-23T09:53:04.588Z,1.60
2023-04-23T09:55:38.524Z,1.43
2023-04-23T09:58:06.698Z,1.57
2023-04-23T10:00:38.428Z,1.57
2023-04-23T10:03:07.740Z,2.10
2023-04-23T10:05:56.256Z,2.10
2023-04-23T10:08:27.941Z,1.73
2023-04-23T10:11:09.618Z,1.73
2023-04-23T10:13:42.188Z,1.83
2023-04-23T10:16:21.265Z,2.63
2023-04-23T10:18:51.787Z,1.80
2023-04-23T10:21:19.900Z,1.60
2023-04-23T10:23:50.063Z,1.20
2023-04-23T10:26:18.134Z,1.20
2023-04-23T10:28:48.362Z,1.47
2023-04-23T10:31:15.992Z,1.63
2023-04-23T10:33:56.062Z,1.30
2023-04-23T10:36:27.850Z,1.47
2023-04-23T10:38:59.059Z,1.20
2023-04-23T10:41:35.279Z,1.40
2023-04-23T10:44:03.620Z,1.50
2023-04-23T10:46:31.514Z,1.30
2023-04-23T10:49:16.384Z,1.60
2023-04-23T10:52:17.949Z,1.57
2023-04-23T10:54:34.230Z,1.20
2023-04-23T10:57:05.462Z,1.20
2023-04-23T10:59:39.945Z,1.40
2023-04-23T11:02:08.560Z,1.50
2023-04-23T11:04:41.461Z,1.60
2023-04-23T11:07:09.742Z,1.67
2023-04-23T11:09:46.604Z,1.30
2023-04-23T11:12:14.240Z,1.27
2023-04-23T11:14:48.886Z,1.40
2023-04-23T11:17:18.335Z,1.30
2023-04-23T11:20:03.786Z,1.23
2023-04-23T11:22:42.035Z,1.60
2023-04-23T11:25:11.108Z,1.50
2023-04-23T11:27:43.395Z,1.13
2023-04-23T11:30:14.865Z,3.07
2023-04-23T11:32:44.482Z,1.20
2023-04-23T11:35:13.923Z,1.70
2023-04-23T11:37:41.899Z,1.50
2023-04-23T11:40:11.173Z,1.40
2023-04-23T11:42:43.418Z,1.20
2023-04-23T11:45:21.129Z,1.30
2023-04-23T11:47:50.851Z,1.50
2023-04-23T11:50:22.704Z,1.00
2023-04-23T11:52:49.658Z,1.30
2023-04-23T11:55:17.034Z,1.30
2023-04-23T11:57:48.829Z,1.40
2023-04-23T12:00:20.199Z,1.33
2023-04-23T12:02:58.455Z,1.30
2023-04-23T12:05:29.427Z,1.30
2023-04-23T12:08:11.091Z,1.20
2023-04-23T12:10:51.748Z,1.37
2023-04-23T12:13:24.121Z,1.37
2023-04-23T12:15:53.531Z,1.40
2023-04-23T12:18:20.418Z,1.30
2023-04-23T12:20:47.233Z,1.10
2023-04-23T12:23:14.171Z,1.40
2023-04-23T12:25:42.377Z,1.43
2023-04-23T12:28:09.157Z,1.10
2023-04-23T12:30:44.148Z,1.13
2023-04-23T12:33:11.942Z,1.00
2023-04-23T12:35:39.641Z,1.20
2023-04-23T12:38:06.795Z,1.10
2023-04-23T12:40:34.282Z,1.30
2023-04-23T12:43:00.988Z,1.23
2023-04-23T12:45:37.354Z,1.10
2023-04-23T12:48:04.481Z,1.10
2023-04-23T12:50:31.359Z,1.40
2023-04-23T12:52:58.259Z,1.60
2023-04-23T12:55:25.003Z,1.10
2023-04-23T12:57:51.826Z,1.10
2023-04-23T13:00:18.659Z,1.43
2023-04-23T13:02:45.891Z,1.10
2023-04-23T13:05:12.967Z,1.20
2023-04-23T13:07:39.707Z,1.10
2023-04-23T13:10:07.310Z,1.30
2023-04-23T13:12:34.156Z,1.93
2023-04-23T13:15:01.075Z,1.50
2023-04-23T13:17:27.932Z,1.10
2023-04-23T13:19:55.894Z,1.10
2023-04-23T13:22:22.921Z,1.30
2023-04-23T13:24:49.596Z,1.57
2023-04-23T13:27:16.303Z,1.30
2023-04-23T13:29:43.162Z,1.23
2023-04-23T13:32:10.303Z,1.30
2023-04-23T13:34:37.098Z,1.40
2023-04-23T13:37:05.780Z,1.20
2023-04-23T13:39:32.612Z,1.20
2023-04-23T13:42:08.532Z,1.20
2023-04-23T13:44:36.553Z,2.77
2023-04-23T13:47:03.652Z,1.30
2023-04-23T13:49:30.467Z,1.23
2023-04-23T13:52:04.305Z,1.10
2023-04-23T13:54:34.613Z,1.13
2023-04-23T13:57:01.443Z,1.30
2023-04-23T13:59:28.283Z,1.20
2023-04-23T14:01:55.134Z,1.30
2023-04-23T14:04:25.056Z,1.33
2023-04-23T14:06:51.921Z,1.80
2023-04-23T14:09:19.138Z,1.50
2023-04-23T14:11:46.024Z,1.13
2023-04-23T14:14:12.772Z,1.47
2023-04-23T14:16:39.522Z,1.33
2023-04-23T14:19:06.807Z,1.60
2023-04-23T14:21:35.772Z,1.33
2023-04-23T14:24:09.812Z,1.47
2023-04-23T14:29:30.152Z,1.40
2023-04-23T14:31:56.986Z,1.43
2023-04-23T14:34:23.828Z,1.70
2023-04-23T14:36:52.981Z,1.50
2023-04-23T14:39:21.730Z,1.97
2023-04-23T14:41:48.501Z,1.93
2023-04-23T14:44:15.340Z,1.17
2023-04-23T14:46:42.161Z,1.10
2023-04-23T14:49:09.042Z,1.27
2023-04-23T14:51:37.452Z,1.10
2023-04-23T14:54:05.023Z,1.30
2023-04-23T14:56:31.753Z,1.00
2023-04-23T14:58:58.492Z,1.00
2023-04-23T15:01:25.276Z,1.10
2023-04-23T15:03:53.781Z,1.10
2023-04-23T15:06:20.975Z,1.03
2023-04-23T15:08:47.757Z,1.30
2023-04-23T15:11:14.724Z,1.33
2023-04-23T15:14:01.189Z,1.00
2023-04-23T15:19:06.615Z,1.10
2023-04-23T15:21:33.644Z,1.07
2023-04-23T15:24:00.493Z,1.40
2023-04-23T15:26:28.114Z,2.37
2023-04-23T15:28:55.275Z,1.10
2023-04-23T15:31:22.005Z,1.00
2023-04-23T15:33:48.808Z,0.87
2023-04-23T15:36:15.625Z,1.00
2023-04-23T15:38:42.625Z,1.40
2023-04-23T15:41:09.469Z,1.17
2023-04-23T15:43:36.344Z,1.23
2023-04-23T15:46:03.155Z,1.40
2023-04-23T15:48:29.994Z,1.70
2023-04-23T15:50:56.849Z,1.10
2023-04-23T15:53:23.718Z,1.00
2023-04-23T15:55:51.479Z,1.00
2023-04-23T15:58:21.448Z,1.50
2023-04-23T16:00:48.225Z,1.40
2023-04-23T16:03:15.576Z,1.00
2023-04-23T16:05:42.729Z,1.03
2023-04-23T16:08:09.513Z,0.90
2023-04-23T16:10:37.773Z,1.10
2023-04-23T16:13:06.151Z,3.07
2023-04-23T16:15:33.230Z,2.27
2023-04-23T16:18:00.363Z,1.63
2023-04-23T16:20:28.477Z,1.30
2023-04-23T16:22:55.692Z,0.90
2023-04-23T16:25:22.556Z,1.00
2023-04-23T16:27:49.582Z,1.00
2023-04-23T16:30:16.784Z,1.90
2023-04-23T16:32:43.640Z,1.30
2023-04-23T16:35:10.514Z,1.70
2023-04-23T16:37:37.318Z,1.80
2023-04-23T16:40:04.695Z,1.33
2023-04-23T16:42:31.521Z,1.20
2023-04-23T16:44:58.369Z,1.30
2023-04-23T16:47:25.267Z,1.10
2023-04-23T16:49:52.903Z,1.27
2023-04-23T16:52:19.730Z,1.30
2023-04-23T16:54:49.287Z,1.27
2023-04-23T16:57:18.720Z,1.80
2023-04-23T16:59:45.514Z,2.17
2023-04-23T17:02:12.525Z,2.10
2023-04-23T17:04:39.657Z,2.10
2023-04-23T17:07:07.511Z,1.73
2023-04-23T17:09:34.678Z,1.37
2023-04-23T17:12:02.528Z,2.80
2023-04-23T17:14:29.362Z,1.90
2023-04-23T17:16:56.322Z,2.80
2023-04-23T17:19:23.084Z,5.17
2023-04-23T17:21:50.037Z,3.27
2023-04-23T17:24:16.860Z,1.27
2023-04-23T17:26:43.736Z,1.57
2023-04-23T17:29:10.842Z,1.47
2023-04-23T17:31:38.374Z,1.30
2023-04-23T17:34:05.609Z,1.67
2023-04-23T17:36:32.977Z,1.80
2023-04-23T17:38:59.928Z,1.40
2023-04-23T17:41:26.816Z,1.77
2023-04-23T17:43:53.642Z,1.70
2023-04-23T17:46:20.544Z,1.70
2023-04-23T17:48:48.243Z,3.47
2023-04-23T17:51:15.192Z,1.60
2023-04-23T17:53:48.404Z,1.73
2023-04-23T17:56:15.872Z,1.10
2023-04-23T17:58:42.801Z,1.37
2023-04-23T18:01:10.313Z,2.20
2023-04-23T18:03:37.497Z,1.77
2023-04-23T18:06:05.144Z,1.60
2023-04-23T18:08:31.945Z,1.40
2023-04-23T18:10:59.956Z,1.63
2023-04-23T18:13:26.946Z,1.90
2023-04-23T18:15:53.676Z,1.60
2023-04-23T18:18:21.815Z,1.30
2023-04-23T18:20:49.204Z,1.33
2023-04-23T18:23:16.098Z,1.37
2023-04-23T18:25:42.901Z,1.90
2023-04-23T18:28:09.858Z,1.40
2023-04-23T18:30:39.813Z,1.23
2023-04-23T18:33:15.729Z,1.40
2023-04-23T18:35:43.533Z,1.67
2023-04-23T18:38:22.120Z,1.30
2023-04-23T18:40:48.885Z,1.40
2023-04-23T18:43:15.697Z,1.40
2023-04-23T18:45:42.534Z,1.90
2023-04-23T18:48:35.555Z,1.93
2023-04-23T18:51:13.913Z,1.47
2023-04-23T18:53:40.958Z,1.40
2023-04-23T18:56:07.675Z,1.47
2023-04-23T18:58:34.430Z,1.30
2023-04-23T19:01:01.337Z,1.50
2023-04-23T19:03:29.403Z,1.40
2023-04-23T19:05:56.296Z,1.47
2023-04-23T19:08:28.318Z,1.10
2023-04-23T19:10:55.959Z,1.33
2023-04-23T19:13:22.970Z,1.30
2023-04-23T19:15:50.567Z,1.13
2023-04-23T19:18:18.419Z,1.33
2023-04-23T19:20:45.624Z,1.67
2023-04-23T19:23:12.465Z,1.33
2023-04-23T19:25:39.352Z,1.90
2023-04-23T19:28:06.245Z,2.17
2023-04-23T19:30:33.439Z,2.47
2023-04-23T19:33:00.337Z,2.00
2023-04-23T19:35:27.135Z,2.03
2023-04-23T19:37:53.867Z,2.27
2023-04-23T19:40:20.786Z,2.67
2023-04-23T19:42:48.607Z,2.40
2023-04-23T19:45:17.710Z,1.83
2023-04-23T19:47:44.671Z,2.20
2023-04-23T19:50:13.765Z,2.23
2023-04-23T19:52:41.319Z,2.23
2023-04-23T19:55:08.622Z,2.00
2023-04-23T19:57:35.841Z,2.43
2023-04-23T20:00:05.015Z,1.80
2023-04-23T20:02:32.116Z,2.10
2023-04-23T20:04:59.996Z,1.60
2023-04-23T20:07:26.787Z,1.80
2023-04-23T20:09:53.547Z,2.10
2023-04-23T20:12:20.490Z,3.03
2023-04-23T20:14:47.353Z,1.87
2023-04-23T20:17:14.418Z,2.30
2023-04-23T20:19:41.413Z,3.77
2023-04-23T20:22:08.391Z,3.03
2023-04-23T20:24:36.080Z,3.13
2023-04-23T20:27:03.036Z,2.40
2023-04-23T20:29:30.806Z,2.53
2023-04-23T20:31:57.786Z,2.30
2023-04-23T20:34:24.538Z,2.50
2023-04-23T20:36:51.382Z,2.80
2023-04-23T20:39:24.074Z,2.50
2023-04-23T20:41:52.368Z,6.03
2023-04-23T20:44:22.580Z,7.90
2023-04-23T20:46:52.898Z,4.30
2023-04-23T20:49:19.990Z,3.17
2023-04-23T20:51:46.860Z,2.43
2023-04-23T20:54:13.641Z,2.10
2023-04-23T20:56:40.668Z,2.30
2023-04-23T20:59:07.434Z,1.73
2023-04-23T21:01:34.397Z,1.70
2023-04-23T21:04:01.759Z,1.60
2023-04-23T21:06:31.292Z,1.53
2023-04-23T21:08:58.202Z,2.27
2023-04-23T21:11:26.167Z,1.90
2023-04-23T21:13:53.518Z,1.73
2023-04-23T21:16:20.317Z,1.77
2023-04-23T21:18:47.090Z,1.80
2023-04-23T21:21:13.774Z,1.87
2023-04-23T21:23:40.550Z,1.60
2023-04-23T21:26:07.727Z,1.80
2023-04-23T21:28:34.589Z,2.13
2023-04-23T21:31:23.222Z,2.20
2023-04-23T21:33:49.960Z,2.27
2023-04-23T21:36:16.730Z,1.90
2023-04-23T21:38:43.441Z,1.80
2023-04-23T21:41:10.159Z,1.53
2023-04-23T21:43:36.908Z,2.40
2023-04-23T21:46:03.708Z,1.80
2023-04-23T21:48:31.968Z,1.90
2023-04-23T21:50:58.768Z,1.60
2023-04-23T21:53:25.557Z,1.23
2023-04-23T21:55:52.302Z,1.40
2023-04-23T21:58:19.188Z,1.30
2023-04-23T22:00:46.292Z,1.47
2023-04-23T22:03:18.666Z,1.60
2023-04-23T22:06:02.711Z,1.30
2023-04-23T22:08:32.918Z,1.27
2023-04-23T22:10:59.719Z,1.30
2023-04-23T22:13:26.796Z,1.40
2023-04-23T22:15:53.572Z,1.60
2023-04-23T22:18:20.585Z,1.63
2023-04-23T22:20:50.924Z,1.50
2023-04-23T22:23:17.629Z,1.80
2023-04-23T22:25:44.796Z,1.80
2023-04-23T22:28:12.057Z,1.70
2023-04-23T22:30:39.071Z,1.43
2023-04-23T22:33:06.244Z,1.80
2023-04-23T22:35:33.154Z,1.50
2023-04-23T22:38:00.190Z,1.57
2023-04-23T22:40:26.973Z,1.70
2023-04-23T22:42:53.756Z,1.67
2023-04-23T22:45:20.543Z,2.30
2023-04-23T22:47:48.415Z,1.53
2023-04-23T22:50:15.322Z,2.00
2023-04-23T22:52:42.126Z,1.80
2023-04-23T22:55:09.029Z,1.50
2023-04-23T22:57:36.175Z,2.00
2023-04-23T23:00:05.022Z,1.80
2023-04-23T23:02:31.847Z,1.70
2023-04-23T23:04:58.603Z,1.20
2023-04-23T23:07:25.477Z,1.60
2023-04-23T23:09:52.280Z,1.40
2023-04-23T23:12:19.018Z,1.53
2023-04-23T23:14:45.889Z,1.50
2023-04-23T23:17:12.608Z,1.90
2023-04-23T23:19:39.384Z,1.67
2023-04-23T23:22:06.186Z,1.50
2023-04-23T23:24:33.239Z,1.87
2023-04-23T23:27:00.007Z,1.50
2023-04-23T23:29:26.737Z,2.30
2023-04-23T23:31:53.481Z,1.67
2023-04-23T23:34:20.550Z,1.50
2023-04-23T23:36:49.715Z,1.67
2023-04-23T23:39:19.257Z,1.50
2023-04-23T23:41:47.201Z,1.50
2023-04-23T23:44:14.147Z,1.60
2023-04-23T23:46:41.191Z,1.57
2023-04-23T23:49:08.430Z,1.50
2023-04-23T23:51:35.500Z,1.77
2023-04-23T23:54:02.255Z,1.43
2023-04-23T23:56:29.128Z,1.63
2023-04-23T23:58:55.910Z,1.80
